createdAt,value
2023-09-05T00:01:06.540Z,97246.28
2023-09-05T00:07:55.316Z,97233.38
2023-09-05T00:10:24.310Z,97229.81
2023-09-05T00:12:53.500Z,97232.41
2023-09-05T00:19:35.932Z,97229.75
2023-09-05T00:22:04.913Z,97226.78
2023-09-05T00:28:51.665Z,97219.38
2023-09-05T00:31:20.679Z,97223.09
2023-09-05T00:38:02.653Z,97212.22
2023-09-05T00:44:52.168Z,97205.31
2023-09-05T00:47:23.941Z,97209.66
2023-09-05T00:54:18.743Z,97196.09
2023-09-05T00:56:48.357Z,97201.38
2023-09-05T01:03:31.326Z,97188.03
2023-09-05T01:10:22.569Z,97188.38
2023-09-05T01:12:51.625Z,97189.78
2023-09-05T01:19:47.985Z,97188.28
2023-09-05T01:22:24.293Z,97194.53
2023-09-05T01:29:01.570Z,97184.91
2023-09-05T01:35:54.847Z,97182.56
2023-09-05T01:38:24.554Z,97183.25
2023-09-05T01:45:13.736Z,97177.41
2023-09-05T01:47:42.862Z,97178.34
2023-09-05T01:54:25.886Z,97172.44
2023-09-05T02:01:21.418Z,97165.69
2023-09-05T02:03:51.541Z,97160.13
2023-09-05T02:06:20.740Z,97162.44
2023-09-05T02:08:49.743Z,97156.38
2023-09-05T02:20:24.303Z,97163.03
2023-09-05T02:22:53.607Z,97166.41
2023-09-05T02:25:23.009Z,97165.25
2023-09-05T02:27:52.714Z,97166.25
2023-09-05T02:30:22.421Z,97174.75
2023-09-05T02:32:53.470Z,97173.41
2023-09-05T02:35:25.626Z,97179.44
2023-09-05T02:37:55.235Z,97175.66
2023-09-05T02:40:24.433Z,97172.38
2023-09-05T02:42:53.435Z,97175.13
2023-09-05T02:45:22.514Z,97171.75
2023-09-05T02:47:51.561Z,97177.38
2023-09-05T02:50:21.213Z,97166.78
2023-09-05T02:52:51.644Z,97173.72
2023-09-05T02:55:20.755Z,97161.84
2023-09-05T02:57:50.115Z,97162.97
2023-09-05T03:00:21.591Z,97170.28
2023-09-05T03:02:54.108Z,97167.59
2023-09-05T03:05:23.052Z,97157.72
2023-09-05T03:12:12.136Z,97157.78
2023-09-05T03:14:41.230Z,97163.56
2023-09-05T03:21:28.593Z,97167.25
2023-09-05T03:23:58.514Z,97174.69
2023-09-05T03:30:47.173Z,97161.91
2023-09-05T03:37:27.671Z,97156.00
2023-09-05T03:39:56.875Z,97149.47
2023-09-05T03:46:46.552Z,97145.16
2023-09-05T03:49:15.596Z,97148.91
2023-09-05T03:51:44.858Z,97155.75
2023-09-05T03:54:14.963Z,97145.41
2023-09-05T03:56:44.162Z,97152.03
2023-09-05T03:59:13.352Z,97153.97
2023-09-05T04:01:42.662Z,97157.34
2023-09-05T04:04:13.416Z,97155.31
2023-09-05T04:06:42.280Z,97160.72
2023-09-05T04:09:11.585Z,97162.66
2023-09-05T04:11:40.565Z,97160.41
2023-09-05T04:14:10.068Z,97167.47
2023-09-05T04:16:39.776Z,97173.69
2023-09-05T04:19:10.423Z,97174.16
2023-09-05T04:21:41.550Z,97169.22
2023-09-05T04:28:35.143Z,97173.09
2023-09-05T04:31:05.671Z,97173.19
2023-09-05T04:38:01.213Z,97177.75
2023-09-05T04:40:30.508Z,97168.50
2023-09-05T04:47:25.068Z,97175.59
2023-09-05T04:49:55.171Z,97173.88
2023-09-05T04:52:28.081Z,97175.44
2023-09-05T04:54:59.682Z,97173.28
2023-09-05T04:57:29.282Z,97178.22
2023-09-05T05:00:01.356Z,97170.78
2023-09-05T05:02:33.321Z,97167.44
2023-09-05T05:05:02.496Z,97169.13
2023-09-05T05:07:31.926Z,97173.53
2023-09-05T05:10:02.848Z,97183.56
2023-09-05T05:12:33.279Z,97189.09
2023-09-05T05:24:04.382Z,97215.25
2023-09-05T05:26:35.694Z,97216.22
2023-09-05T05:33:11.460Z,97221.53
2023-09-05T05:35:41.509Z,97229.28
2023-09-05T05:38:10.808Z,97234.00
2023-09-05T05:44:53.746Z,97243.91
2023-09-05T05:47:25.818Z,97243.91
2023-09-05T05:54:07.112Z,97238.38
2023-09-05T05:56:36.552Z,97241.72
2023-09-05T06:02:32.057Z,97251.69
2023-09-05T06:09:20.216Z,97253.25
2023-09-05T06:11:49.724Z,97245.09
2023-09-05T06:17:45.066Z,97241.47
2023-09-05T06:24:33.614Z,97245.53
2023-09-05T06:27:02.921Z,97245.38
2023-09-05T06:33:28.761Z,97252.50
2023-09-05T06:40:17.235Z,97247.63
2023-09-05T06:42:46.251Z,97244.84
2023-09-05T06:49:42.695Z,97250.25
2023-09-05T06:52:12.172Z,97256.63
2023-09-05T06:54:41.491Z,97265.06
2023-09-05T06:59:40.090Z,97258.28
2023-09-05T07:02:10.021Z,97254.78
2023-09-05T07:04:39.943Z,97256.56
2023-09-05T07:07:10.862Z,97259.53
2023-09-05T07:09:39.944Z,97258.19
2023-09-05T07:12:10.063Z,97257.28
2023-09-05T07:14:39.260Z,97257.19
2023-09-05T07:17:08.864Z,97260.22
2023-09-05T07:19:38.275Z,97257.50
2023-09-05T07:22:07.470Z,97254.78
2023-09-05T07:24:38.604Z,97271.50
2023-09-05T07:27:08.312Z,97266.59
2023-09-05T07:29:37.507Z,97260.66
2023-09-05T07:32:07.949Z,97260.56
2023-09-05T07:34:37.445Z,97264.13
2023-09-05T07:37:09.090Z,97256.66
2023-09-05T07:39:40.650Z,97259.69
2023-09-05T07:42:09.840Z,97264.97
2023-09-05T07:44:39.448Z,97264.44
2023-09-05T07:47:09.260Z,97261.66
2023-09-05T07:49:38.848Z,97256.47
2023-09-05T07:52:09.008Z,97256.31
2023-09-05T07:54:39.820Z,97256.91
2023-09-05T07:57:08.805Z,97254.13
2023-09-05T07:59:38.005Z,97262.19
2023-09-05T08:02:07.408Z,97266.53
2023-09-05T08:04:38.558Z,97258.88
2023-09-05T08:07:08.273Z,97261.41
2023-09-05T08:09:38.902Z,97264.75
2023-09-05T08:12:09.027Z,97267.34
2023-09-05T08:14:38.098Z,97271.78
2023-09-05T08:17:07.400Z,97271.34
2023-09-05T08:19:37.314Z,97266.00
2023-09-05T08:22:08.040Z,97271.72
2023-09-05T08:24:37.153Z,97266.94
2023-09-05T08:27:10.735Z,97268.97
2023-09-05T08:29:39.834Z,97272.44
2023-09-05T08:32:09.404Z,97269.16
2023-09-05T08:34:40.373Z,97272.78
2023-09-05T08:37:09.615Z,97281.06
2023-09-05T08:39:38.976Z,97280.13
2023-09-05T08:42:10.012Z,97280.63
2023-09-05T08:44:42.175Z,97280.41
2023-09-05T08:47:12.397Z,97277.81
2023-09-05T08:49:42.017Z,97281.25
2023-09-05T08:52:13.258Z,97274.16
2023-09-05T08:54:43.590Z,97277.59
2023-09-05T08:57:18.704Z,97269.13
2023-09-05T08:59:47.805Z,97273.66
2023-09-05T09:06:35.351Z,97260.72
2023-09-05T09:09:05.271Z,97271.72
2023-09-05T09:16:02.031Z,97260.28
2023-09-05T09:18:33.169Z,97257.47
2023-09-05T09:25:23.306Z,97251.47
2023-09-05T09:27:56.283Z,97249.38
2023-09-05T09:30:25.958Z,97243.25
2023-09-05T09:32:57.526Z,97241.00
2023-09-05T09:35:29.289Z,97240.63
2023-09-05T09:37:58.587Z,97245.41
2023-09-05T09:40:27.679Z,97238.38
2023-09-05T09:42:57.390Z,97234.97
2023-09-05T09:45:27.715Z,97236.53
2023-09-05T09:48:00.737Z,97234.34
2023-09-05T09:50:30.615Z,97224.84
2023-09-05T09:53:00.636Z,97223.28
2023-09-05T09:55:31.569Z,97214.81
2023-09-05T09:58:06.707Z,97218.06
2023-09-05T10:00:37.333Z,97212.84
2023-09-05T10:03:10.141Z,97202.28
2023-09-05T10:08:55.307Z,97202.66
2023-09-05T10:15:44.786Z,97203.16
2023-09-05T10:18:15.734Z,97194.44
2023-09-05T10:20:46.572Z,97188.41
2023-09-05T10:23:19.773Z,97183.84
2023-09-05T10:29:03.512Z,97182.28
2023-09-05T10:35:48.196Z,97182.97
2023-09-05T10:38:20.980Z,97184.97
2023-09-05T10:40:51.730Z,97182.97
2023-09-05T10:43:24.750Z,97180.69
2023-09-05T10:49:52.077Z,97169.31
2023-09-05T10:56:46.799Z,97159.81
2023-09-05T10:59:28.085Z,97162.03
2023-09-05T11:06:17.978Z,97149.84
2023-09-05T11:08:47.174Z,97153.31
2023-09-05T11:15:32.769Z,97138.88
2023-09-05T11:27:02.137Z,97131.66
2023-09-05T11:29:33.171Z,97121.34
2023-09-05T11:36:24.926Z,97124.91
2023-09-05T11:38:54.946Z,97112.78
2023-09-05T11:41:24.140Z,97113.59
2023-09-05T11:43:55.687Z,97111.81
2023-09-05T11:46:26.348Z,97110.78
2023-09-05T11:49:01.595Z,97106.72
2023-09-05T11:55:42.351Z,97101.25
2023-09-05T12:02:36.048Z,97102.59
2023-09-05T12:05:06.168Z,97100.25
2023-09-05T12:11:50.343Z,97099.84
2023-09-05T12:14:21.784Z,97098.69
2023-09-05T12:21:10.258Z,97086.53
2023-09-05T12:23:39.676Z,97089.84
2023-09-05T12:26:09.161Z,97070.44
2023-09-05T12:28:40.221Z,97071.22
2023-09-05T12:31:11.738Z,97081.59
2023-09-05T12:37:53.163Z,97085.78
2023-09-05T12:40:24.514Z,97069.78
2023-09-05T12:47:13.800Z,97070.13
2023-09-05T12:49:48.170Z,97059.47
2023-09-05T12:56:42.630Z,97050.47
2023-09-05T12:59:11.827Z,97055.19
2023-09-05T13:01:41.334Z,97053.09
2023-09-05T13:04:15.261Z,97047.78
2023-09-05T13:06:44.866Z,97042.84
2023-09-05T13:09:14.330Z,97036.03
2023-09-05T13:11:43.681Z,97040.81
2023-09-05T13:14:12.737Z,97040.34
2023-09-05T13:16:42.278Z,97034.97
2023-09-05T13:19:13.534Z,97033.53
2023-09-05T13:21:43.428Z,97037.97
2023-09-05T13:24:12.697Z,97031.09
2023-09-05T13:26:41.793Z,97035.03
2023-09-05T13:29:11.208Z,97035.22
2023-09-05T13:31:40.288Z,97026.25
2023-09-05T13:34:09.545Z,97031.88
2023-09-05T13:36:40.082Z,97024.94
2023-09-05T13:39:10.198Z,97027.25
2023-09-05T13:41:39.840Z,97022.00
2023-09-05T13:44:09.043Z,97024.13
2023-09-05T13:46:39.071Z,97028.72
2023-09-05T13:53:21.686Z,97034.56
2023-09-05T13:55:53.761Z,97021.84
2023-09-05T14:02:31.077Z,97016.03
2023-09-05T14:05:01.358Z,97011.59
2023-09-05T14:12:19.765Z,96996.41
2023-09-05T14:14:48.852Z,96999.88
2023-09-05T14:17:17.944Z,97005.28
2023-09-05T14:19:46.940Z,96996.47
2023-09-05T14:22:16.136Z,96992.53
2023-09-05T14:24:46.319Z,96990.16
2023-09-05T14:27:17.139Z,96995.13
2023-09-05T14:29:46.292Z,96995.78
2023-09-05T14:32:15.484Z,96997.44
2023-09-05T14:34:44.576Z,97003.94
2023-09-05T14:37:13.669Z,96992.69
2023-09-05T14:39:42.914Z,96993.25
2023-09-05T14:42:12.510Z,96995.91
2023-09-05T14:44:43.719Z,96989.19
2023-09-05T14:47:13.870Z,96994.13
2023-09-05T14:49:43.033Z,96989.66
2023-09-05T14:52:12.344Z,96989.03
2023-09-05T14:59:00.702Z,96985.56
2023-09-05T15:01:31.192Z,96986.41
2023-09-05T15:08:19.494Z,96968.34
2023-09-05T15:10:49.319Z,96977.59
2023-09-05T15:17:41.682Z,96972.25
2023-09-05T15:20:11.793Z,96975.22
2023-09-05T15:22:41.401Z,96971.34
2023-09-05T15:25:17.987Z,96965.16
2023-09-05T15:27:48.066Z,96974.78
2023-09-05T15:34:38.077Z,96971.84
2023-09-05T15:37:07.285Z,96972.03
2023-09-05T15:44:01.268Z,96975.28
2023-09-05T15:46:30.604Z,96965.72
2023-09-05T15:53:25.716Z,96962.47
2023-09-05T15:55:55.326Z,96962.97
2023-09-05T16:02:44.625Z,96962.59
2023-09-05T16:05:14.020Z,96966.34
2023-09-05T16:07:43.722Z,96956.72
2023-09-05T16:14:26.668Z,96961.13
2023-09-05T16:16:58.086Z,96966.66
2023-09-05T16:28:16.718Z,96951.88
2023-09-05T16:30:47.455Z,96963.44
2023-09-05T16:33:17.322Z,96973.53
2023-09-05T16:35:46.479Z,96971.84
2023-09-05T16:38:15.451Z,96971.47
2023-09-05T16:40:44.545Z,96970.72
2023-09-05T16:43:13.948Z,96968.94
2023-09-05T16:45:50.657Z,96969.56
2023-09-05T16:48:19.916Z,96969.47
2023-09-05T16:54:55.427Z,96974.84
2023-09-05T16:57:24.735Z,96972.50
2023-09-05T17:04:15.471Z,96979.53
2023-09-05T17:06:44.551Z,96982.38
2023-09-05T17:13:32.794Z,96975.53
2023-09-05T17:16:01.966Z,96979.41
2023-09-05T17:18:32.171Z,96986.03
2023-09-05T17:30:06.567Z,96991.66
2023-09-05T17:32:36.204Z,96993.72
2023-09-05T17:39:24.462Z,97001.69
2023-09-05T17:41:53.940Z,97013.72
2023-09-05T17:44:23.035Z,97008.31
2023-09-05T17:46:53.833Z,97009.16
2023-09-05T17:49:23.127Z,97020.59
2023-09-05T17:51:52.689Z,97016.94
2023-09-05T17:54:21.803Z,97013.69
2023-09-05T17:56:51.040Z,97013.38
2023-09-05T17:59:20.774Z,97016.00
2023-09-05T18:01:50.241Z,97027.25
2023-09-05T18:04:21.231Z,97032.03
2023-09-05T18:06:52.038Z,97030.66
2023-09-05T18:09:21.304Z,97030.94
2023-09-05T18:11:50.546Z,97027.78
2023-09-05T18:14:21.790Z,97024.53
2023-09-05T18:21:05.559Z,97030.53
2023-09-05T18:23:36.476Z,97034.56
2023-09-05T18:30:19.164Z,97040.78
2023-09-05T18:32:48.641Z,97039.13
2023-09-05T18:35:17.923Z,97042.91
2023-09-05T18:37:48.776Z,97035.16
2023-09-05T18:40:17.788Z,97042.53
2023-09-05T18:42:47.062Z,97044.00
2023-09-05T18:45:16.301Z,97043.34
2023-09-05T18:47:45.879Z,97041.44
2023-09-05T18:50:15.777Z,97042.06
2023-09-05T18:52:44.964Z,97042.66
2023-09-05T18:55:16.106Z,97039.97
2023-09-05T18:57:45.441Z,97045.13
2023-09-05T19:00:15.668Z,97051.38
2023-09-05T19:02:44.764Z,97050.66
2023-09-05T19:05:16.578Z,97056.16
2023-09-05T19:07:45.780Z,97053.13
2023-09-05T19:10:16.525Z,97053.81
2023-09-05T19:12:45.759Z,97052.03
2023-09-05T19:15:14.937Z,97059.38
2023-09-05T19:17:44.732Z,97054.38
2023-09-05T19:20:14.727Z,97049.06
2023-09-05T19:22:43.716Z,97046.63
2023-09-05T19:25:12.913Z,97049.03
2023-09-05T19:27:45.312Z,97049.56
2023-09-05T19:30:14.714Z,97054.88
2023-09-05T19:36:56.744Z,97050.06
2023-09-05T19:39:29.780Z,97047.50
2023-09-05T19:46:19.935Z,97054.28
2023-09-05T19:48:49.751Z,97054.03
2023-09-05T19:51:19.765Z,97056.25
2023-09-05T19:53:49.450Z,97046.94
2023-09-05T19:56:18.757Z,97058.16
2023-09-05T19:58:47.936Z,97053.44
2023-09-05T20:01:17.334Z,97057.16
2023-09-05T20:03:48.768Z,97048.75
2023-09-05T20:06:20.883Z,97049.47
2023-09-05T20:08:49.747Z,97054.16
2023-09-05T20:11:18.947Z,97053.19
2023-09-05T20:13:47.928Z,97039.13
2023-09-05T20:16:17.233Z,97046.34
2023-09-05T20:18:49.034Z,97043.38
2023-09-05T20:21:18.163Z,97046.56
2023-09-05T20:23:47.377Z,97040.16
2023-09-05T20:26:18.159Z,97041.63
2023-09-05T20:33:07.854Z,97037.63
2023-09-05T20:35:38.649Z,97045.78
2023-09-05T20:42:26.702Z,97049.72
2023-09-05T20:44:58.941Z,97048.09
2023-09-05T20:51:54.029Z,97047.13
2023-09-05T20:54:23.285Z,97042.94
2023-09-05T20:56:52.909Z,97045.38
2023-09-05T20:59:22.006Z,97048.28
2023-09-05T21:01:52.093Z,97040.44
2023-09-05T21:08:34.965Z,97038.47
2023-09-05T21:11:04.166Z,97047.84
2023-09-05T21:17:46.225Z,97047.06
2023-09-05T21:24:34.889Z,97038.22
2023-09-05T21:27:04.893Z,97036.69
2023-09-05T21:33:53.393Z,97027.03
2023-09-05T21:36:24.189Z,97027.88
2023-09-05T21:43:20.033Z,97016.84
2023-09-05T21:45:49.184Z,97019.94
2023-09-05T21:51:26.789Z,97020.06
2023-09-05T21:58:14.491Z,97013.38
2023-09-05T22:00:48.274Z,97014.59
2023-09-05T22:03:17.390Z,97009.88
2023-09-05T22:05:46.800Z,97010.47
2023-09-05T22:08:17.626Z,97015.59
2023-09-05T22:15:12.959Z,97011.94
2023-09-05T22:17:44.237Z,97005.81
2023-09-05T22:28:48.453Z,97006.78
2023-09-05T22:31:17.822Z,97003.16
2023-09-05T22:33:51.234Z,97002.81
2023-09-05T22:36:20.790Z,97000.59
2023-09-05T22:38:52.322Z,97002.56
2023-09-05T22:41:21.533Z,96988.91
2023-09-05T22:43:50.617Z,96995.34
2023-09-05T22:46:19.842Z,96994.41
2023-09-05T22:48:50.601Z,96991.94
2023-09-05T22:55:50.379Z,96976.03
2023-09-05T22:58:19.780Z,96987.56
2023-09-05T23:05:03.037Z,96982.59
2023-09-05T23:07:32.317Z,96980.69
2023-09-05T23:14:13.843Z,96983.13
2023-09-05T23:16:43.336Z,96973.47
2023-09-05T23:19:12.459Z,96971.63
2023-09-05T23:30:15.482Z,96962.06
2023-09-05T23:32:47.296Z,96957.66
2023-09-05T23:39:35.862Z,96954.34
2023-09-05T23:42:04.903Z,96947.31
2023-09-05T23:44:34.102Z,96945.06
2023-09-05T23:47:04.978Z,96935.72
2023-09-05T23:49:34.289Z,96947.16
2023-09-05T23:52:04.043Z,96949.22
2023-09-05T23:54:33.158Z,96937.06
